Time;durP1;ratioP1;P1;durP2;ratioP2;P2;SDS_P1;SDS_P2;PMS_P1;PMS_P2;Temp;Humidity;BMP_temperature;BMP_pressure;BME280_temperature;BME280_humidity;BME280_pressure;Samples;Min_cycle;Max_cycle;Signal;HPM_P1;HPM_P2
2020/12/29 00:01:43;;;;;;;20.30;10.35;;;7.20;78.80;;;;;;5091791;28;20028;-63
2020/12/29 00:04:11;;;;;;;23.38;10.45;;;7.20;78.90;;;;;;5092949;28;20032;-63
2020/12/29 00:06:57;;;;;;;23.52;11.13;;;7.20;79.00;;;;;;5092447;28;20035;-64
2020/12/29 00:09:25;;;;;;;19.23;10.75;;;7.20;79.10;;;;;;5091914;28;20066;-63
2020/12/29 00:11:52;;;;;;;19.05;10.57;;;7.30;79.10;;;;;;5092452;28;20024;-63
2020/12/29 00:14:18;;;;;;;20.02;10.75;;;7.20;79.10;;;;;;5092489;28;20032;-64
2020/12/29 00:16:45;;;;;;;17.90;9.98;;;7.20;79.10;;;;;;5091870;28;20486;-63
2020/12/29 00:19:12;;;;;;;14.88;9.38;;;7.20;79.20;;;;;;5092705;28;20032;-63
2020/12/29 00:21:38;;;;;;;17.67;10.20;;;7.20;79.20;;;;;;5092472;28;20031;-63
2020/12/29 00:24:05;;;;;;;20.27;11.43;;;7.20;79.20;;;;;;5091915;28;20414;-63
2020/12/29 00:26:30;;;;;;;19.35;9.73;;;7.20;79.30;;;;;;5092489;28;20028;-63
2020/12/29 00:28:56;;;;;;;18.45;9.82;;;7.30;79.40;;;;;;5092535;28;20051;-63
2020/12/29 00:31:23;;;;;;;17.00;9.80;;;7.20;79.40;;;;;;5091918;28;20032;-63
2020/12/29 00:33:51;;;;;;;19.40;10.48;;;7.20;79.40;;;;;;5092342;28;20032;-63
2020/12/29 00:36:17;;;;;;;18.15;10.27;;;7.20;79.40;;;;;;5091937;28;20433;-63
2020/12/29 00:38:43;;;;;;;18.95;10.30;;;7.20;79.50;;;;;;5092110;28;20032;-64
2020/12/29 00:41:10;;;;;;;18.23;9.75;;;7.20;79.40;;;;;;5095095;28;20041;-64
2020/12/29 00:43:37;;;;;;;16.50;9.07;;;7.30;79.50;;;;;;5095612;28;20546;-64
2020/12/29 00:46:07;;;;;;;19.23;9.88;;;7.30;79.50;;;;;;5096179;28;20034;-63
2020/12/29 00:48:34;;;;;;;18.40;10.25;;;7.30;79.50;;;;;;5094804;28;20119;-63
2020/12/29 00:51:11;;;;;;;17.45;9.63;;;7.20;79.50;;;;;;5093654;28;20483;-63
2020/12/29 00:53:45;;;;;;;14.98;9.60;;;7.20;79.60;;;;;;5094719;28;20027;-63
2020/12/29 00:56:12;;;;;;;17.27;9.75;;;7.20;79.50;;;;;;5095789;28;20063;-63
2020/12/29 00:58:39;;;;;;;16.23;9.57;;;7.20;79.60;;;;;;5093904;28;20032;-63
2020/12/29 01:01:07;;;;;;;18.30;9.57;;;7.20;79.60;;;;;;5094404;28;20028;-63
2020/12/29 01:03:36;;;;;;;19.67;10.15;;;7.20;79.60;;;;;;5094552;28;20032;-63
2020/12/29 01:06:02;;;;;;;18.00;8.68;;;7.20;79.70;;;;;;5093883;28;20449;-63
2020/12/29 01:08:30;;;;;;;16.60;9.45;;;7.30;79.70;;;;;;5094276;28;20054;-63
2020/12/29 01:10:57;;;;;;;17.75;9.93;;;7.30;79.70;;;;;;5094508;28;20463;-63
2020/12/29 01:13:34;;;;;;;17.10;9.15;;;7.30;79.80;;;;;;5093503;28;20024;-63
2020/12/29 01:16:04;;;;;;;13.55;8.13;;;7.30;79.70;;;;;;5094241;28;20038;-63
2020/12/29 01:18:31;;;;;;;15.68;9.38;;;7.30;79.70;;;;;;5093391;28;20368;-63
2020/12/29 01:20:56;;;;;;;16.77;9.38;;;7.30;79.60;;;;;;5095426;28;20042;-63
2020/12/29 01:23:22;;;;;;;17.60;8.93;;;7.30;79.60;;;;;;5095419;28;20027;-64
2020/12/29 01:25:48;;;;;;;15.82;9.45;;;7.30;79.60;;;;;;5094752;28;20028;-64
2020/12/29 01:28:14;;;;;;;19.10;9.50;;;7.30;79.60;;;;;;5095465;28;20034;-63
2020/12/29 01:30:39;;;;;;;15.98;8.77;;;7.30;79.60;;;;;;5095177;28;20110;-63
2020/12/29 01:33:05;;;;;;;14.43;7.82;;;7.30;79.60;;;;;;5094643;28;20028;-63
2020/12/29 01:35:31;;;;;;;18.90;7.80;;;7.30;79.60;;;;;;5094864;28;20054;-63
2020/12/29 01:37:57;;;;;;;17.90;8.25;;;7.30;79.60;;;;;;5095359;28;20426;-63
2020/12/29 01:40:23;;;;;;;12.13;8.15;;;7.40;79.70;;;;;;5094367;28;20032;-63
2020/12/29 01:42:48;;;;;;;13.38;7.90;;;7.30;79.60;;;;;;5095172;28;20075;-63
2020/12/29 01:45:18;;;;;;;15.32;8.63;;;7.30;79.70;;;;;;5095314;28;20024;-63
2020/12/29 01:47:44;;;;;;;16.17;7.97;;;7.30;79.60;;;;;;5094087;28;20020;-63
2020/12/29 01:50:12;;;;;;;14.95;8.00;;;7.30;79.70;;;;;;5094503;28;20063;-63
2020/12/29 01:52:38;;;;;;;13.00;7.72;;;7.30;79.70;;;;;;5093865;28;20012;-63
2020/12/29 01:55:09;;;;;;;16.30;8.00;;;7.30;79.70;;;;;;5094275;28;20139;-63
2020/12/29 01:57:35;;;;;;;19.08;8.57;;;7.30;79.80;;;;;;5087924;28;20080;-63
2020/12/29 02:00:09;;;;;;;13.95;8.23;;;7.30;79.80;;;;;;5091806;28;20456;-63
2020/12/29 02:02:39;;;;;;;12.35;7.38;;;7.30;79.70;;;;;;5094155;28;20058;-63
2020/12/29 02:05:06;;;;;;;14.23;8.30;;;7.30;79.70;;;;;;5094534;28;20118;-63
2020/12/29 02:07:32;;;;;;;13.55;7.85;;;7.30;79.70;;;;;;5094552;28;20032;-63
2020/12/29 02:09:58;;;;;;;14.27;7.53;;;7.30;79.70;;;;;;5093551;28;20577;-63
2020/12/29 02:12:29;;;;;;;12.93;7.70;;;7.30;79.70;;;;;;5094514;28;20047;-63
2020/12/29 02:14:56;;;;;;;13.05;7.80;;;7.30;79.80;;;;;;5093309;28;20095;-63
2020/12/29 02:17:22;;;;;;;14.85;8.23;;;7.30;79.70;;;;;;5094309;28;20170;-63
2020/12/29 02:19:48;;;;;;;11.85;7.60;;;7.30;79.80;;;;;;5094099;28;20024;-63
2020/12/29 02:22:21;;;;;;;14.82;8.20;;;7.30;79.80;;;;;;5093726;28;20032;-64
2020/12/29 02:24:49;;;;;;;17.08;8.60;;;7.30;79.80;;;;;;5094142;28;20035;-63
2020/12/29 02:27:15;;;;;;;14.98;7.13;;;7.30;79.80;;;;;;5094119;28;20032;-63
2020/12/29 02:29:40;;;;;;;12.82;8.15;;;7.40;79.90;;;;;;5093326;28;20119;-63
2020/12/29 02:32:06;;;;;;;13.65;8.18;;;7.40;79.90;;;;;;5094091;28;20027;-63
2020/12/29 02:34:32;;;;;;;14.23;7.93;;;7.40;79.90;;;;;;5094259;28;20036;-63
2020/12/29 02:36:57;;;;;;;11.25;7.38;;;7.30;79.90;;;;;;5092982;28;20105;-63
2020/12/29 02:39:23;;;;;;;12.27;7.75;;;7.30;79.90;;;;;;5094048;28;20047;-63
2020/12/29 02:41:49;;;;;;;12.60;7.65;;;7.30;79.90;;;;;;5093798;28;20111;-63
2020/12/29 02:44:19;;;;;;;18.15;8.18;;;7.30;79.90;;;;;;5093006;28;20491;-63
2020/12/29 02:46:48;;;;;;;13.55;7.53;;;7.30;80.00;;;;;;5093879;28;20024;-63
2020/12/29 02:49:15;;;;;;;14.63;7.75;;;7.30;80.00;;;;;;5093728;28;20455;-63
2020/12/29 02:51:42;;;;;;;11.82;7.32;;;7.30;80.00;;;;;;5092879;28;20475;-63
2020/12/29 02:54:09;;;;;;;13.25;7.18;;;7.30;80.00;;;;;;5093614;28;20103;-63
2020/12/29 02:56:35;;;;;;;13.35;7.30;;;7.30;80.00;;;;;;5093517;28;20040;-63
2020/12/29 02:59:00;;;;;;;11.80;7.10;;;7.30;80.10;;;;;;5092870;28;20111;-63
2020/12/29 03:01:27;;;;;;;15.07;8.05;;;7.30;80.10;;;;;;5093570;28;20035;-63
2020/12/29 03:03:54;;;;;;;13.10;7.60;;;7.30;80.10;;;;;;5093390;28;20042;-63
2020/12/29 03:06:19;;;;;;;12.82;8.32;;;7.30;80.10;;;;;;5092401;28;20040;-63
2020/12/29 03:08:45;;;;;;;12.60;7.85;;;7.30;80.10;;;;;;5093464;28;20021;-63
2020/12/29 03:11:11;;;;;;;11.65;6.72;;;7.30;80.10;;;;;;5092426;28;20115;-63
2020/12/29 03:13:36;;;;;;;12.55;7.30;;;7.40;80.10;;;;;;5093559;28;20154;-63
2020/12/29 03:16:02;;;;;;;12.10;7.00;;;7.30;80.00;;;;;;5093090;28;20048;-63
2020/12/29 03:18:28;;;;;;;15.27;8.05;;;7.40;80.10;;;;;;5092755;28;20012;-63
2020/12/29 03:20:53;;;;;;;11.93;7.35;;;7.30;80.00;;;;;;5093321;28;20444;-63
2020/12/29 03:23:19;;;;;;;13.95;7.30;;;7.30;80.00;;;;;;5092928;28;20035;-63
2020/12/29 03:25:44;;;;;;;12.65;7.43;;;7.30;80.10;;;;;;5092385;28;20028;-63
2020/12/29 03:28:10;;;;;;;11.63;6.97;;;7.30;80.10;;;;;;5092898;28;20078;-63
2020/12/29 03:30:36;;;;;;;12.05;7.38;;;7.30;80.10;;;;;;5093216;28;20040;-63
2020/12/29 03:33:01;;;;;;;12.40;6.93;;;7.30;80.10;;;;;;5092278;28;20024;-63
2020/12/29 03:35:27;;;;;;;14.35;7.40;;;7.30;80.20;;;;;;5093086;28;20038;-63
2020/12/29 03:37:52;;;;;;;11.82;6.55;;;7.30;80.20;;;;;;5092980;28;20040;-63
2020/12/29 03:40:18;;;;;;;13.15;7.78;;;7.30;80.20;;;;;;5092041;28;20019;-63
2020/12/29 03:42:44;;;;;;;11.32;6.60;;;7.30;80.30;;;;;;5092829;28;20063;-63
2020/12/29 03:45:09;;;;;;;11.85;7.43;;;7.30;80.30;;;;;;5092932;28;20028;-63
2020/12/29 03:47:35;;;;;;;13.38;7.35;;;7.40;80.30;;;;;;5092318;28;20387;-63
2020/12/29 03:50:00;;;;;;;11.63;7.18;;;7.40;80.30;;;;;;5092618;28;20024;-63
2020/12/29 03:52:26;;;;;;;11.73;6.90;;;7.40;80.30;;;;;;5092741;28;20404;-63
2020/12/29 03:54:52;;;;;;;15.80;9.20;;;7.40;80.20;;;;;;5092055;28;20032;-63
2020/12/29 03:57:17;;;;;;;13.80;7.82;;;7.40;80.20;;;;;;5092470;28;20036;-63
2020/12/29 03:59:43;;;;;;;12.45;7.40;;;7.50;80.20;;;;;;5092828;28;20024;-63
2020/12/29 04:02:09;;;;;;;12.68;6.82;;;7.50;80.10;;;;;;5091788;28;20039;-63
2020/12/29 04:04:37;;;;;;;13.02;7.75;;;7.50;80.10;;;;;;5092639;28;20017;-63
2020/12/29 04:07:03;;;;;;;13.15;6.63;;;7.50;80.10;;;;;;5092496;28;20186;-63
2020/12/29 04:09:33;;;;;;;11.40;6.97;;;7.50;80.10;;;;;;5091715;28;20064;-63
2020/12/29 04:11:59;;;;;;;11.30;6.18;;;7.50;80.00;;;;;;5092823;28;20031;-63
2020/12/29 04:14:25;;;;;;;11.63;7.15;;;7.50;80.00;;;;;;5092017;28;20396;-63
2020/12/29 04:16:50;;;;;;;9.93;6.55;;;7.60;80.00;;;;;;5096835;28;20040;-63
2020/12/29 04:19:16;;;;;;;10.23;6.43;;;7.60;79.90;;;;;;5096768;28;20023;-63
2020/12/29 04:21:41;;;;;;;11.07;7.18;;;7.60;79.80;;;;;;5095727;28;20682;-63
2020/12/29 04:24:07;;;;;;;12.43;6.90;;;7.60;79.80;;;;;;5096583;28;20074;-63
2020/12/29 04:26:35;;;;;;;12.85;7.45;;;7.60;79.60;;;;;;5096362;28;20395;-63
2020/12/29 04:29:01;;;;;;;11.60;6.75;;;7.60;79.60;;;;;;5095955;28;20384;-63
2020/12/29 04:31:27;;;;;;;10.63;6.05;;;7.70;79.50;;;;;;5096381;28;20023;-63
2020/12/29 04:33:52;;;;;;;17.20;6.70;;;7.70;79.40;;;;;;5096384;28;20364;-63
2020/12/29 04:36:18;;;;;;;11.93;7.13;;;7.70;79.30;;;;;;5095678;28;20047;-63
2020/12/29 04:38:43;;;;;;;14.05;7.03;;;7.70;79.30;;;;;;5096065;28;20028;-63
2020/12/29 04:41:09;;;;;;;11.48;6.95;;;7.70;79.20;;;;;;5096553;28;20038;-63
2020/12/29 04:43:37;;;;;;;10.60;6.68;;;7.70;79.10;;;;;;5095556;28;20047;-63
2020/12/29 04:46:04;;;;;;;8.23;5.45;;;7.70;79.10;;;;;;5096283;28;20028;-63
2020/12/29 04:48:31;;;;;;;10.15;6.82;;;7.70;78.90;;;;;;5095949;28;20032;-63
2020/12/29 04:51:03;;;;;;;9.82;6.63;;;7.70;78.70;;;;;;5095109;28;20036;-63
2020/12/29 04:53:33;;;;;;;9.13;6.45;;;7.70;78.20;;;;;;5095969;28;20445;-63
2020/12/29 04:56:07;;;;;;;9.15;5.30;;;7.70;77.80;;;;;;5096075;28;20036;-63
2020/12/29 04:58:34;;;;;;;8.52;5.30;;;7.70;77.40;;;;;;5095226;28;20036;-63
2020/12/29 05:01:08;;;;;;;7.63;5.35;;;7.60;77.30;;;;;;5095944;28;20067;-63
2020/12/29 05:03:44;;;;;;;8.43;5.30;;;7.60;76.70;;;;;;5095470;28;20475;-63
2020/12/29 05:06:11;;;;;;;7.38;4.68;;;7.60;76.50;;;;;;5095850;28;20032;-63
2020/12/29 05:08:37;;;;;;;7.57;5.07;;;7.60;76.40;;;;;;5095865;28;20024;-63
2020/12/29 05:11:03;;;;;;;8.57;5.03;;;7.50;76.40;;;;;;5094902;28;20036;-64
2020/12/29 05:13:29;;;;;;;6.72;4.55;;;7.60;76.40;;;;;;5095575;28;20039;-63
2020/12/29 05:15:54;;;;;;;7.30;4.85;;;7.50;76.30;;;;;;5095440;28;20035;-63
2020/12/29 05:18:20;;;;;;;8.30;5.07;;;7.50;76.10;;;;;;5094721;28;20035;-63
2020/12/29 05:20:48;;;;;;;8.25;5.20;;;7.50;76.00;;;;;;5095661;28;20028;-63
2020/12/29 05:23:15;;;;;;;7.78;5.13;;;7.50;75.90;;;;;;5095447;28;20024;-63
2020/12/29 05:25:48;;;;;;;8.95;5.82;;;7.50;75.60;;;;;;5094628;28;20514;-63
2020/12/29 05:28:14;;;;;;;8.70;5.45;;;7.50;75.30;;;;;;5095295;28;20020;-63
2020/12/29 05:30:40;;;;;;;9.30;5.18;;;7.50;75.30;;;;;;5095418;28;20455;-63
2020/12/29 05:33:13;;;;;;;7.90;4.95;;;7.50;75.40;;;;;;5094383;28;20043;-63
2020/12/29 05:35:41;;;;;;;7.82;4.72;;;7.40;75.20;;;;;;5095434;28;20048;-63
2020/12/29 05:38:07;;;;;;;8.50;5.20;;;7.50;75.20;;;;;;5094907;28;20123;-63
2020/12/29 05:40:34;;;;;;;8.60;5.07;;;7.50;75.20;;;;;;5094349;28;20108;-63
2020/12/29 05:43:04;;;;;;;9.70;5.57;;;7.40;75.20;;;;;;5095090;28;20032;-63
2020/12/29 05:45:32;;;;;;;12.30;7.25;;;7.40;75.20;;;;;;5094893;28;20035;-63
2020/12/29 05:48:00;;;;;;;19.67;9.25;;;7.30;75.20;;;;;;5089350;28;20028;-63
2020/12/29 05:50:27;;;;;;;11.70;7.35;;;7.30;75.10;;;;;;5094234;28;20042;-63
2020/12/29 05:52:57;;;;;;;10.27;6.13;;;7.30;75.30;;;;;;5093851;28;20028;-62
2020/12/29 05:55:23;;;;;;;8.68;5.75;;;7.30;75.20;;;;;;5094218;28;20483;-63
2020/12/29 05:58:10;;;;;;;7.07;4.95;;;7.30;75.20;;;;;;5093997;28;20047;-63
2020/12/29 06:00:38;;;;;;;7.45;4.65;;;7.30;75.00;;;;;;5093660;28;20024;-63
2020/12/29 06:03:05;;;;;;;7.05;5.00;;;7.30;74.90;;;;;;5079862;28;20024;-63
2020/12/29 06:05:33;;;;;;;12.73;5.05;;;7.30;74.80;;;;;;5081217;28;20071;-63
2020/12/29 06:08:03;;;;;;;11.90;5.75;;;7.30;74.60;;;;;;5092164;28;20035;-63
2020/12/29 06:10:34;;;;;;;7.78;5.22;;;7.30;74.50;;;;;;5094108;28;20088;-63
2020/12/29 06:13:02;;;;;;;9.07;5.53;;;7.30;74.40;;;;;;5089660;28;20063;-63
2020/12/29 06:15:37;;;;;;;8.27;5.03;;;7.30;74.40;;;;;;5088909;28;20036;-63
2020/12/29 06:18:04;;;;;;;6.47;4.68;;;7.30;74.30;;;;;;5091127;28;20028;-63
2020/12/29 06:20:42;;;;;;;8.65;5.35;;;7.30;74.30;;;;;;5093985;28;20043;-62
2020/12/29 06:23:10;;;;;;;8.43;5.25;;;7.20;74.20;;;;;;5091313;28;20020;-63
2020/12/29 06:25:37;;;;;;;8.60;5.38;;;7.20;74.30;;;;;;5094066;28;20111;-63
2020/12/29 06:28:06;;;;;;;9.07;4.85;;;7.30;74.40;;;;;;5082255;28;20472;-63
2020/12/29 06:30:33;;;;;;;9.23;5.07;;;7.20;74.40;;;;;;5093826;28;20401;-63
2020/12/29 06:33:00;;;;;;;8.65;5.00;;;7.20;74.60;;;;;;5093369;28;20024;-62
2020/12/29 06:35:26;;;;;;;9.32;5.50;;;7.20;74.70;;;;;;5092992;28;20058;-62
2020/12/29 06:38:00;;;;;;;8.68;5.13;;;7.10;74.80;;;;;;5090496;28;20036;-62
2020/12/29 06:40:34;;;;;;;6.70;4.70;;;7.10;74.80;;;;;;5088836;28;20364;-62
2020/12/29 06:43:00;;;;;;;8.18;5.13;;;7.10;75.00;;;;;;5084346;28;20045;-62
2020/12/29 06:45:32;;;;;;;8.07;5.07;;;7.10;75.10;;;;;;5087340;28;20031;-62
2020/12/29 06:47:58;;;;;;;9.70;5.45;;;7.00;75.20;;;;;;5085797;28;20039;-62
2020/12/29 06:50:28;;;;;;;9.10;5.60;;;7.00;75.30;;;;;;5085387;28;20028;-63
2020/12/29 06:52:56;;;;;;;10.32;5.50;;;7.00;75.40;;;;;;5087316;28;20126;-62
2020/12/29 06:55:22;;;;;;;7.53;5.00;;;7.00;75.40;;;;;;5084812;28;20078;-62
2020/12/29 06:57:49;;;;;;;8.02;5.10;;;7.00;75.40;;;;;;5087521;28;20043;-62
2020/12/29 07:00:16;;;;;;;8.00;5.13;;;6.90;75.30;;;;;;5083109;28;20025;-67
2020/12/29 07:02:47;;;;;;;11.43;5.40;;;6.90;75.40;;;;;;5088250;28;20032;-63
2020/12/29 07:05:14;;;;;;;9.60;5.40;;;7.00;75.30;;;;;;5078512;28;20029;-62
2020/12/29 07:07:59;;;;;;;8.65;5.20;;;6.90;75.20;;;;;;5092895;28;20107;-64
2020/12/29 07:10:33;;;;;;;7.90;4.82;;;6.90;75.30;;;;;;5091992;28;20467;-62
2020/12/29 07:13:03;;;;;;;;;;;6.90;75.50;;;;;;5093641;28;20085;-62
2020/12/29 07:15:32;;;;;;;6.13;4.00;;;6.80;75.90;;;;;;5093583;28;19954;-62
2020/12/29 07:17:59;;;;;;;7.78;5.18;;;6.80;76.20;;;;;;5092300;28;20044;-62
2020/12/29 07:20:30;;;;;;;8.32;5.78;;;6.80;76.40;;;;;;5093346;28;20034;-63
2020/12/29 07:23:03;;;;;;;7.80;5.43;;;6.80;76.60;;;;;;5093012;28;20472;-63
2020/12/29 07:25:30;;;;;;;10.48;6.43;;;6.70;76.60;;;;;;5092396;28;20028;-63
2020/12/29 07:27:59;;;;;;;9.48;6.32;;;6.70;76.60;;;;;;5093182;28;20043;-67
2020/12/29 07:30:27;;;;;;;11.02;6.78;;;6.70;77.10;;;;;;5083965;28;20027;-63
2020/12/29 07:32:55;;;;;;;8.43;5.07;;;6.70;76.40;;;;;;5081225;28;20063;-63
2020/12/29 07:35:22;;;;;;;9.45;6.50;;;6.70;76.40;;;;;;5086807;28;20024;-62
2020/12/29 07:37:50;;;;;;;10.55;6.82;;;6.70;76.30;;;;;;5086474;28;20093;-62
2020/12/29 07:40:16;;;;;;;10.23;6.60;;;6.70;76.10;;;;;;5085047;28;20345;-62
2020/12/29 07:42:42;;;;;;;9.75;6.07;;;6.80;76.00;;;;;;5082281;28;20024;-64
2020/12/29 07:45:07;;;;;;;9.95;6.78;;;6.80;75.90;;;;;;5084010;28;20020;-62
2020/12/29 07:47:33;;;;;;;11.93;7.20;;;6.70;75.70;;;;;;5089318;28;20123;-63
2020/12/29 07:50:03;;;;;;;11.90;7.30;;;6.70;75.50;;;;;;5085404;28;20027;-62
2020/12/29 07:52:28;;;;;;;10.38;6.60;;;6.70;75.40;;;;;;5086996;28;20044;-63
2020/12/29 07:55:12;;;;;;;10.68;6.50;;;6.80;75.30;;;;;;5084777;28;20028;-63
2020/12/29 07:57:38;;;;;;;10.75;7.63;;;6.80;75.20;;;;;;5079775;28;20036;-63
2020/12/29 08:00:09;;;;;;;11.45;6.95;;;6.80;75.20;;;;;;5077226;28;20036;-63
2020/12/29 08:02:38;;;;;;;13.23;6.75;;;6.80;75.20;;;;;;5081441;28;20086;-63
2020/12/29 08:05:05;;;;;;;9.32;6.47;;;6.80;75.20;;;;;;5077497;28;20422;-63
2020/12/29 08:07:31;;;;;;;13.25;6.95;;;6.80;75.10;;;;;;5073360;28;20024;-63
2020/12/29 08:09:57;;;;;;;11.68;7.05;;;6.80;75.10;;;;;;5082954;28;20484;-63
2020/12/29 08:12:22;;;;;;;11.07;7.10;;;6.80;75.00;;;;;;5075084;28;20113;-63
2020/12/29 08:14:48;;;;;;;10.02;6.70;;;6.80;74.90;;;;;;5073972;28;20028;-63
2020/12/29 08:17:14;;;;;;;10.75;6.65;;;6.80;74.80;;;;;;5073937;28;20040;-63
2020/12/29 08:19:40;;;;;;;9.63;6.00;;;6.80;74.70;;;;;;5074735;28;20083;-64
2020/12/29 08:22:07;;;;;;;8.52;5.70;;;6.80;74.70;;;;;;5071179;28;20032;-64
2020/12/29 08:24:33;;;;;;;10.32;6.20;;;6.90;74.70;;;;;;5075523;28;20025;-63
2020/12/29 08:26:59;;;;;;;11.02;7.00;;;6.90;74.70;;;;;;5075777;28;20055;-63
2020/12/29 08:29:25;;;;;;;9.82;5.93;;;6.90;74.70;;;;;;5072914;28;20024;-63
2020/12/29 08:32:11;;;;;;;8.90;5.55;;;6.80;74.60;;;;;;5082244;28;20028;-63
2020/12/29 08:34:39;;;;;;;8.05;4.95;;;6.90;74.70;;;;;;5084961;28;20089;-63
2020/12/29 08:37:07;;;;;;;9.27;5.75;;;6.90;74.60;;;;;;5078687;28;20395;-63
2020/12/29 08:40:08;;;;;;;9.80;6.07;;;6.90;75.30;;;;;;5084464;28;20036;-63
2020/12/29 08:42:35;;;;;;;8.68;5.03;;;6.90;74.60;;;;;;5077107;28;20086;-63
2020/12/29 08:45:06;;;;;;;9.43;5.80;;;6.90;74.60;;;;;;5088217;28;20028;-62
2020/12/29 08:47:33;;;;;;;11.20;4.88;;;6.90;74.60;;;;;;5091031;28;20024;-62
2020/12/29 08:50:18;;;;;;;7.68;4.60;;;6.90;74.60;;;;;;5089893;28;20134;-62
2020/12/29 08:52:45;;;;;;;8.02;5.00;;;6.90;74.60;;;;;;5088556;28;20411;-63
2020/12/29 08:55:30;;;;;;;11.60;5.50;;;6.90;74.60;;;;;;5090432;28;20025;-63
2020/12/29 08:57:58;;;;;;;8.80;4.55;;;6.90;74.60;;;;;;5084899;28;20044;-61
2020/12/29 09:00:25;;;;;;;7.43;4.32;;;6.90;74.70;;;;;;5087524;28;20472;-61
2020/12/29 09:02:51;;;;;;;9.00;5.00;;;6.90;74.90;;;;;;5081991;28;20039;-61
2020/12/29 09:05:21;;;;;;;8.57;5.20;;;6.90;75.00;;;;;;5077773;28;20082;-61
2020/12/29 09:07:47;;;;;;;9.68;5.05;;;6.90;75.10;;;;;;5083340;28;20127;-61
2020/12/29 09:10:15;;;;;;;8.35;4.35;;;6.80;75.10;;;;;;5093104;28;20107;-62
2020/12/29 09:12:41;;;;;;;7.50;4.30;;;6.80;75.30;;;;;;5079380;28;20035;-61
2020/12/29 09:15:11;;;;;;;8.80;4.63;;;6.80;75.50;;;;;;5076858;28;20024;-63
2020/12/29 09:17:42;;;;;;;7.85;4.28;;;6.70;75.40;;;;;;5073892;28;20036;-62
2020/12/29 09:20:16;;;;;;;8.90;4.10;;;6.80;75.50;;;;;;5073921;28;20506;-61
2020/12/29 09:22:48;;;;;;;7.72;3.70;;;6.70;75.80;;;;;;5074053;28;20185;-63
2020/12/29 09:25:27;;;;;;;8.23;4.32;;;6.70;75.80;;;;;;5077777;28;20399;-63
2020/12/29 09:28:21;;;;;;;5.90;3.80;;;6.70;75.80;;;;;;5072627;28;20029;-62
2020/12/29 09:31:10;;;;;;;7.75;3.92;;;6.70;75.90;;;;;;5091206;28;20036;-63
2020/12/29 09:33:38;;;;;;;5.85;3.63;;;6.70;75.90;;;;;;5091922;28;20456;-63
2020/12/29 09:36:07;;;;;;;6.72;3.80;;;6.70;76.00;;;;;;5092656;28;20020;-63
2020/12/29 09:38:34;;;;;;;7.40;3.58;;;6.70;76.10;;;;;;5092142;28;20058;-63
2020/12/29 09:41:03;;;;;;;4.97;3.17;;;6.70;76.20;;;;;;5084756;28;20032;-63
2020/12/29 09:43:29;;;;;;;6.93;3.75;;;6.60;76.20;;;;;;5088159;28;20028;-63
2020/12/29 09:45:57;;;;;;;5.30;3.20;;;6.70;76.30;;;;;;5082704;28;20037;-62
2020/12/29 09:48:23;;;;;;;7.78;3.25;;;6.70;76.30;;;;;;5088454;28;20114;-63
2020/12/29 09:50:49;;;;;;;6.93;3.33;;;6.70;76.30;;;;;;5093776;28;20174;-63
2020/12/29 09:53:15;;;;;;;9.00;4.30;;;6.70;76.60;;;;;;5093166;28;20115;-63
2020/12/29 09:55:40;;;;;;;5.95;3.80;;;6.60;76.60;;;;;;5093851;28;20028;-63
2020/12/29 09:58:07;;;;;;;6.68;3.83;;;6.60;76.60;;;;;;5092283;28;20036;-63
2020/12/29 10:00:35;;;;;;;6.03;3.67;;;6.60;76.80;;;;;;5084960;28;20065;-63
2020/12/29 10:03:01;;;;;;;7.75;3.55;;;6.60;76.90;;;;;;5091212;28;20024;-63
2020/12/29 10:05:27;;;;;;;5.97;3.28;;;6.60;77.00;;;;;;5089203;28;20487;-63
2020/12/29 10:07:53;;;;;;;5.45;3.28;;;6.60;77.10;;;;;;5091888;28;20020;-63
2020/12/29 10:10:19;;;;;;;5.95;3.65;;;6.60;77.20;;;;;;5093708;28;20031;-63
2020/12/29 10:12:44;;;;;;;5.80;3.15;;;6.60;77.30;;;;;;5089299;28;20490;-62
2020/12/29 10:15:10;;;;;;;4.05;2.92;;;6.60;77.30;;;;;;5089758;28;20051;-63
2020/12/29 10:17:37;;;;;;;5.55;3.15;;;6.60;77.30;;;;;;5088921;28;20059;-64
2020/12/29 10:20:04;;;;;;;8.13;3.67;;;6.60;77.30;;;;;;5087156;28;20139;-63
2020/12/29 10:22:30;;;;;;;4.80;3.38;;;6.60;77.40;;;;;;5085577;28;20032;-63
2020/12/29 10:24:55;;;;;;;5.03;3.00;;;6.60;77.50;;;;;;5091034;28;20106;-63
2020/12/29 10:27:21;;;;;;;4.35;2.90;;;6.60;77.50;;;;;;5091179;28;20024;-63
2020/12/29 10:29:47;;;;;;;5.07;2.78;;;6.50;77.50;;;;;;5091633;28;20485;-64
2020/12/29 10:32:13;;;;;;;6.45;3.65;;;6.60;77.70;;;;;;5091824;28;20046;-65
2020/12/29 10:34:38;;;;;;;2.88;2.33;;;6.50;77.80;;;;;;5090604;28;20032;-63
2020/12/29 10:37:08;;;;;;;5.38;2.35;;;6.50;77.90;;;;;;5091049;28;20118;-64
2020/12/29 10:39:34;;;;;;;3.55;2.42;;;6.50;78.10;;;;;;5091555;28;20044;-63
2020/12/29 10:41:59;;;;;;;4.75;2.70;;;6.50;78.40;;;;;;5091101;28;20032;-63
2020/12/29 10:44:25;;;;;;;4.25;2.58;;;6.50;78.40;;;;;;5091211;28;20044;-64
2020/12/29 10:46:50;;;;;;;2.83;2.13;;;6.40;78.60;;;;;;5089328;28;20115;-63
2020/12/29 10:49:16;;;;;;;1.70;1.38;;;6.50;78.80;;;;;;5089196;28;20020;-63
2020/12/29 10:51:42;;;;;;;1.58;1.10;;;6.40;78.90;;;;;;5088714;28;20055;-70
2020/12/29 10:54:07;;;;;;;3.33;2.13;;;6.50;79.10;;;;;;5088223;28;20020;-63
2020/12/29 10:56:35;;;;;;;2.92;1.88;;;6.40;79.30;;;;;;5078995;28;20472;-63
2020/12/29 10:59:01;;;;;;;0.50;0.50;;;6.40;79.40;;;;;;5083959;28;20028;-67
2020/12/29 11:01:26;;;;;;;2.13;1.63;;;6.40;79.60;;;;;;5077562;28;20036;-62
2020/12/29 11:03:52;;;;;;;1.73;1.23;;;6.30;79.70;;;;;;5074437;28;20020;-63
2020/12/29 11:06:19;;;;;;;2.72;1.55;;;6.30;79.90;;;;;;5089880;28;20130;-63
2020/12/29 11:08:46;;;;;;;2.05;1.45;;;6.30;80.10;;;;;;5092825;28;20043;-63
2020/12/29 11:11:12;;;;;;;1.05;0.93;;;6.20;80.20;;;;;;5092000;28;20061;-63
2020/12/29 11:13:39;;;;;;;0.80;0.80;;;6.20;80.40;;;;;;5092464;28;20492;-63
2020/12/29 11:16:04;;;;;;;2.38;1.83;;;6.20;80.60;;;;;;5092288;28;20032;-63
2020/12/29 11:18:30;;;;;;;5.30;1.90;;;6.20;80.70;;;;;;5092008;28;20601;-63
2020/12/29 11:20:56;;;;;;;2.95;1.20;;;6.20;80.90;;;;;;5091444;28;20494;-63
2020/12/29 11:23:22;;;;;;;4.47;1.88;;;6.10;81.60;;;;;;5087172;28;20499;-63
2020/12/29 11:25:49;;;;;;;1.38;1.17;;;6.10;81.00;;;;;;5073626;28;20113;-62
2020/12/29 11:28:15;;;;;;;1.40;1.30;;;6.10;81.20;;;;;;5075175;28;20032;-63
2020/12/29 11:30:40;;;;;;;1.48;1.20;;;6.10;81.30;;;;;;5080095;28;20111;-63
2020/12/29 11:33:07;;;;;;;1.40;1.13;;;6.10;81.40;;;;;;5090644;28;20057;-64
2020/12/29 11:35:33;;;;;;;5.07;2.33;;;6.10;81.50;;;;;;5090301;28;20467;-63
2020/12/29 11:37:58;;;;;;;1.23;1.13;;;6.10;81.60;;;;;;5090216;28;20067;-63
2020/12/29 11:40:24;;;;;;;1.02;1.00;;;6.10;81.70;;;;;;5090400;28;20426;-63
2020/12/29 11:42:50;;;;;;;2.00;1.33;;;6.10;81.80;;;;;;5090675;28;20468;-63
2020/12/29 11:45:15;;;;;;;0.70;0.70;;;6.00;81.80;;;;;;5089184;28;20077;-64
2020/12/29 11:47:41;;;;;;;2.10;1.52;;;6.10;82.00;;;;;;5090764;28;20027;-64
2020/12/29 11:50:07;;;;;;;1.92;1.50;;;6.00;82.00;;;;;;5090360;28;20066;-64
2020/12/29 11:52:33;;;;;;;1.08;0.95;;;6.00;82.10;;;;;;5086579;28;20927;-62
2020/12/29 11:54:58;;;;;;;2.38;1.50;;;6.00;82.20;;;;;;5086646;28;20035;-63
2020/12/29 11:57:24;;;;;;;4.13;2.75;;;6.00;82.30;;;;;;5089682;28;20066;-63
2020/12/29 11:59:49;;;;;;;1.55;1.45;;;6.00;82.40;;;;;;5088886;28;20028;-64
2020/12/29 12:02:15;;;;;;;2.63;1.67;;;6.00;82.50;;;;;;5089993;28;20048;-64
2020/12/29 12:04:41;;;;;;;4.13;2.78;;;6.00;82.60;;;;;;5090333;28;20498;-63
2020/12/29 12:07:10;;;;;;;1.20;1.00;;;6.00;82.70;;;;;;5089693;28;20107;-64
2020/12/29 12:09:37;;;;;;;3.38;2.10;;;6.00;82.80;;;;;;5089913;28;20103;-63
2020/12/29 12:12:04;;;;;;;4.63;2.65;;;6.00;82.90;;;;;;5090479;28;20032;-64
2020/12/29 12:14:29;;;;;;;1.77;1.67;;;6.00;83.00;;;;;;5086186;28;20458;-64
2020/12/29 12:16:55;;;;;;;1.75;1.48;;;6.00;83.00;;;;;;5090196;28;20075;-63
2020/12/29 12:19:20;;;;;;;2.00;1.63;;;6.00;83.10;;;;;;5089851;28;20031;-64
2020/12/29 12:21:46;;;;;;;2.13;1.77;;;6.00;83.20;;;;;;5089686;28;20028;-63
2020/12/29 12:24:12;;;;;;;5.13;2.33;;;6.00;83.20;;;;;;5090500;28;20020;-63
2020/12/29 12:26:38;;;;;;;3.28;1.80;;;6.00;83.30;;;;;;5089768;28;20020;-63
2020/12/29 12:29:04;;;;;;;2.58;2.03;;;6.00;83.30;;;;;;5089663;28;20032;-64
2020/12/29 12:31:32;;;;;;;4.80;2.67;;;5.90;83.40;;;;;;5090096;28;20028;-63
2020/12/29 12:33:57;;;;;;;6.82;2.53;;;5.90;83.50;;;;;;5089410;28;20028;-63
2020/12/29 12:36:23;;;;;;;3.45;1.92;;;6.00;83.50;;;;;;5091590;28;20132;-63
2020/12/29 12:38:49;;;;;;;2.47;2.08;;;6.00;83.60;;;;;;5091581;28;20039;-63
2020/12/29 12:41:15;;;;;;;3.00;2.05;;;6.00;83.80;;;;;;5093017;28;20110;-63
2020/12/29 12:43:43;;;;;;;5.35;3.50;;;5.90;83.80;;;;;;5091429;28;20059;-63
2020/12/29 12:46:09;;;;;;;4.25;2.45;;;6.00;84.00;;;;;;5089706;28;20044;-63
2020/12/29 12:48:35;;;;;;;1.17;1.08;;;6.00;84.10;;;;;;5089987;28;20035;-64
2020/12/29 12:51:01;;;;;;;2.85;2.30;;;5.90;84.20;;;;;;5077939;28;20044;-63
2020/12/29 12:53:26;;;;;;;3.30;2.30;;;6.00;84.40;;;;;;5076292;28;20086;-64
2020/12/29 12:55:52;;;;;;;5.13;2.60;;;5.90;84.50;;;;;;5078179;28;20028;-77